sensor_id;sensor_type;location;lat;lon;timestamp;P1;durP1;ratioP1;P2;durP2;ratioP2
33074;SDS011;19433;51.292;6.868;2023-05-10T00:00:40;43.13;;;17.90;;
33074;SDS011;19433;51.292;6.868;2023-05-10T00:03:06;50.43;;;19.00;;
33074;SDS011;19433;51.292;6.868;2023-05-10T00:05:31;47.17;;;18.23;;
33074;SDS011;19433;51.292;6.868;2023-05-10T00:07:57;43.20;;;18.53;;
33074;SDS011;19433;51.292;6.868;2023-05-10T00:10:22;45.80;;;19.10;;
33074;SDS011;19433;51.292;6.868;2023-05-10T00:12:48;60.53;;;20.27;;
33074;SDS011;19433;51.292;6.868;2023-05-10T00:15:13;50.43;;;19.30;;
33074;SDS011;19433;51.292;6.868;2023-05-10T00:17:39;54.27;;;17.70;;
33074;SDS011;19433;51.292;6.868;2023-05-10T00:20:04;45.47;;;19.20;;
33074;SDS011;19433;51.292;6.868;2023-05-10T00:22:31;53.47;;;19.73;;
33074;SDS011;19433;51.292;6.868;2023-05-10T00:24:56;33.57;;;18.10;;
33074;SDS011;19433;51.292;6.868;2023-05-10T00:27:22;41.10;;;18.97;;
33074;SDS011;19433;51.292;6.868;2023-05-10T00:29:47;54.17;;;19.20;;
33074;SDS011;19433;51.292;6.868;2023-05-10T00:32:12;47.50;;;19.10;;
33074;SDS011;19433;51.292;6.868;2023-05-10T00:34:38;50.70;;;20.47;;
33074;SDS011;19433;51.292;6.868;2023-05-10T00:37:04;37.20;;;16.70;;
33074;SDS011;19433;51.292;6.868;2023-05-10T00:39:29;44.27;;;16.93;;
33074;SDS011;19433;51.292;6.868;2023-05-10T00:41:55;25.33;;;15.47;;
33074;SDS011;19433;51.292;6.868;2023-05-10T00:44:20;39.43;;;18.47;;
33074;SDS011;19433;51.292;6.868;2023-05-10T00:46:46;51.83;;;17.93;;
33074;SDS011;19433;51.292;6.868;2023-05-10T00:49:12;51.87;;;19.60;;
33074;SDS011;19433;51.292;6.868;2023-05-10T00:51:37;38.83;;;17.20;;
33074;SDS011;19433;51.292;6.868;2023-05-10T00:54:02;57.43;;;19.97;;
33074;SDS011;19433;51.292;6.868;2023-05-10T00:56:28;41.47;;;19.70;;
33074;SDS011;19433;51.292;6.868;2023-05-10T00:58:54;59.73;;;20.37;;
33074;SDS011;19433;51.292;6.868;2023-05-10T01:01:20;28.70;;;17.87;;
33074;SDS011;19433;51.292;6.868;2023-05-10T01:03:46;44.67;;;18.33;;
33074;SDS011;19433;51.292;6.868;2023-05-10T01:06:12;43.23;;;19.60;;
33074;SDS011;19433;51.292;6.868;2023-05-10T01:08:38;31.90;;;18.30;;
33074;SDS011;19433;51.292;6.868;2023-05-10T01:11:04;38.17;;;19.93;;
33074;SDS011;19433;51.292;6.868;2023-05-10T01:13:39;26.50;;;17.03;;
33074;SDS011;19433;51.292;6.868;2023-05-10T01:16:07;39.03;;;19.43;;
33074;SDS011;19433;51.292;6.868;2023-05-10T01:18:36;20.43;;;16.43;;
33074;SDS011;19433;51.292;6.868;2023-05-10T01:21:14;23.77;;;16.70;;
33074;SDS011;19433;51.292;6.868;2023-05-10T01:29:33;20.67;;;15.77;;
33074;SDS011;19433;51.292;6.868;2023-05-10T01:32:35;37.13;;;17.90;;
33074;SDS011;19433;51.292;6.868;2023-05-10T01:38:17;28.07;;;16.47;;
33074;SDS011;19433;51.292;6.868;2023-05-10T01:40:52;27.50;;;16.90;;
33074;SDS011;19433;51.292;6.868;2023-05-10T01:43:30;25.67;;;17.03;;
33074;SDS011;19433;51.292;6.868;2023-05-10T01:46:05;24.73;;;17.37;;
33074;SDS011;19433;51.292;6.868;2023-05-10T01:48:40;52.47;;;17.93;;
33074;SDS011;19433;51.292;6.868;2023-05-10T01:51:12;40.53;;;19.63;;
33074;SDS011;19433;51.292;6.868;2023-05-10T01:53:41;38.77;;;19.03;;
33074;SDS011;19433;51.292;6.868;2023-05-10T01:56:08;67.40;;;20.20;;
33074;SDS011;19433;51.292;6.868;2023-05-10T01:58:35;48.07;;;20.40;;
33074;SDS011;19433;51.292;6.868;2023-05-10T02:01:04;35.60;;;18.40;;
33074;SDS011;19433;51.292;6.868;2023-05-10T02:03:32;42.10;;;19.90;;
33074;SDS011;19433;51.292;6.868;2023-05-10T02:06:00;36.67;;;19.90;;
33074;SDS011;19433;51.292;6.868;2023-05-10T02:08:27;33.03;;;17.60;;
33074;SDS011;19433;51.292;6.868;2023-05-10T02:10:54;37.43;;;17.60;;
33074;SDS011;19433;51.292;6.868;2023-05-10T02:13:21;27.27;;;16.33;;
33074;SDS011;19433;51.292;6.868;2023-05-10T02:15:48;22.30;;;14.80;;
33074;SDS011;19433;51.292;6.868;2023-05-10T02:18:14;25.63;;;14.83;;
33074;SDS011;19433;51.292;6.868;2023-05-10T02:20:41;22.30;;;13.70;;
33074;SDS011;19433;51.292;6.868;2023-05-10T02:23:10;25.40;;;14.50;;
33074;SDS011;19433;51.292;6.868;2023-05-10T02:25:36;18.20;;;12.80;;
33074;SDS011;19433;51.292;6.868;2023-05-10T02:28:04;34.67;;;15.17;;
33074;SDS011;19433;51.292;6.868;2023-05-10T02:30:31;20.60;;;13.20;;
33074;SDS011;19433;51.292;6.868;2023-05-10T02:32:58;21.83;;;13.30;;
33074;SDS011;19433;51.292;6.868;2023-05-10T02:35:25;35.80;;;14.90;;
33074;SDS011;19433;51.292;6.868;2023-05-10T02:37:51;41.60;;;16.53;;
33074;SDS011;19433;51.292;6.868;2023-05-10T02:40:19;28.00;;;14.43;;
33074;SDS011;19433;51.292;6.868;2023-05-10T02:42:46;35.47;;;16.30;;
33074;SDS011;19433;51.292;6.868;2023-05-10T02:45:14;39.70;;;17.40;;
33074;SDS011;19433;51.292;6.868;2023-05-10T02:47:42;38.33;;;16.50;;
33074;SDS011;19433;51.292;6.868;2023-05-10T02:50:08;41.53;;;18.90;;
33074;SDS011;19433;51.292;6.868;2023-05-10T02:52:36;41.53;;;18.80;;
33074;SDS011;19433;51.292;6.868;2023-05-10T02:55:05;40.93;;;17.43;;
33074;SDS011;19433;51.292;6.868;2023-05-10T02:57:34;45.97;;;18.80;;
33074;SDS011;19433;51.292;6.868;2023-05-10T03:00:03;39.57;;;17.63;;
33074;SDS011;19433;51.292;6.868;2023-05-10T03:02:29;60.47;;;18.00;;
33074;SDS011;19433;51.292;6.868;2023-05-10T03:04:55;31.07;;;16.77;;
33074;SDS011;19433;51.292;6.868;2023-05-10T03:07:21;20.90;;;14.93;;
33074;SDS011;19433;51.292;6.868;2023-05-10T03:09:47;21.10;;;14.00;;
33074;SDS011;19433;51.292;6.868;2023-05-10T03:12:15;39.77;;;18.43;;
33074;SDS011;19433;51.292;6.868;2023-05-10T03:20:45;45.03;;;16.90;;
33074;SDS011;19433;51.292;6.868;2023-05-10T03:23:18;23.70;;;14.80;;
33074;SDS011;19433;51.292;6.868;2023-05-10T03:25:48;23.23;;;15.87;;
33074;SDS011;19433;51.292;6.868;2023-05-10T03:28:15;25.53;;;14.47;;
33074;SDS011;19433;51.292;6.868;2023-05-10T03:30:42;55.33;;;17.40;;
33074;SDS011;19433;51.292;6.868;2023-05-10T03:33:09;29.77;;;15.50;;
33074;SDS011;19433;51.292;6.868;2023-05-10T03:35:35;42.10;;;15.47;;
33074;SDS011;19433;51.292;6.868;2023-05-10T03:38:01;31.23;;;15.40;;
33074;SDS011;19433;51.292;6.868;2023-05-10T03:40:26;31.77;;;15.07;;
33074;SDS011;19433;51.292;6.868;2023-05-10T03:43:00;36.63;;;15.30;;
33074;SDS011;19433;51.292;6.868;2023-05-10T03:45:25;44.63;;;17.23;;
33074;SDS011;19433;51.292;6.868;2023-05-10T03:47:51;19.03;;;14.33;;
33074;SDS011;19433;51.292;6.868;2023-05-10T03:50:16;19.10;;;15.00;;
33074;SDS011;19433;51.292;6.868;2023-05-10T03:52:42;29.53;;;15.40;;
33074;SDS011;19433;51.292;6.868;2023-05-10T03:55:07;35.50;;;16.90;;
33074;SDS011;19433;51.292;6.868;2023-05-10T03:57:33;39.80;;;16.70;;
33074;SDS011;19433;51.292;6.868;2023-05-10T03:59:58;29.93;;;16.50;;
33074;SDS011;19433;51.292;6.868;2023-05-10T04:02:24;33.57;;;17.50;;
33074;SDS011;19433;51.292;6.868;2023-05-10T04:04:49;36.17;;;17.40;;
33074;SDS011;19433;51.292;6.868;2023-05-10T04:07:15;49.47;;;18.77;;
33074;SDS011;19433;51.292;6.868;2023-05-10T04:09:40;48.77;;;19.10;;
33074;SDS011;19433;51.292;6.868;2023-05-10T04:12:06;41.93;;;19.10;;
33074;SDS011;19433;51.292;6.868;2023-05-10T04:14:31;42.67;;;20.07;;
33074;SDS011;19433;51.292;6.868;2023-05-10T04:16:56;39.47;;;20.20;;
33074;SDS011;19433;51.292;6.868;2023-05-10T04:19:22;45.00;;;20.70;;
33074;SDS011;19433;51.292;6.868;2023-05-10T04:21:47;43.07;;;21.10;;
33074;SDS011;19433;51.292;6.868;2023-05-10T04:24:12;48.53;;;22.20;;
33074;SDS011;19433;51.292;6.868;2023-05-10T04:26:38;50.77;;;23.10;;
33074;SDS011;19433;51.292;6.868;2023-05-10T04:29:03;58.53;;;23.10;;
33074;SDS011;19433;51.292;6.868;2023-05-10T04:31:28;56.20;;;24.67;;
33074;SDS011;19433;51.292;6.868;2023-05-10T04:33:54;52.00;;;23.63;;
33074;SDS011;19433;51.292;6.868;2023-05-10T04:36:19;56.07;;;24.67;;
33074;SDS011;19433;51.292;6.868;2023-05-10T04:38:44;63.23;;;25.97;;
33074;SDS011;19433;51.292;6.868;2023-05-10T04:41:10;56.80;;;25.80;;
33074;SDS011;19433;51.292;6.868;2023-05-10T04:43:36;62.50;;;26.50;;
33074;SDS011;19433;51.292;6.868;2023-05-10T04:46:03;63.23;;;27.90;;
33074;SDS011;19433;51.292;6.868;2023-05-10T04:48:29;54.63;;;25.50;;
33074;SDS011;19433;51.292;6.868;2023-05-10T04:50:54;46.77;;;25.50;;
33074;SDS011;19433;51.292;6.868;2023-05-10T04:53:19;56.93;;;26.03;;
33074;SDS011;19433;51.292;6.868;2023-05-10T04:55:45;51.60;;;26.70;;
33074;SDS011;19433;51.292;6.868;2023-05-10T04:58:11;60.37;;;28.50;;
33074;SDS011;19433;51.292;6.868;2023-05-10T05:00:36;68.93;;;27.90;;
33074;SDS011;19433;51.292;6.868;2023-05-10T05:03:02;51.17;;;26.37;;
33074;SDS011;19433;51.292;6.868;2023-05-10T05:05:27;65.63;;;27.57;;
33074;SDS011;19433;51.292;6.868;2023-05-10T05:07:52;54.97;;;27.40;;
33074;SDS011;19433;51.292;6.868;2023-05-10T05:10:17;66.67;;;29.77;;
33074;SDS011;19433;51.292;6.868;2023-05-10T05:12:43;57.97;;;27.67;;
33074;SDS011;19433;51.292;6.868;2023-05-10T05:15:08;51.60;;;27.93;;
33074;SDS011;19433;51.292;6.868;2023-05-10T05:17:34;50.67;;;28.10;;
33074;SDS011;19433;51.292;6.868;2023-05-10T05:20:00;59.93;;;28.47;;
33074;SDS011;19433;51.292;6.868;2023-05-10T05:22:25;58.90;;;28.60;;
33074;SDS011;19433;51.292;6.868;2023-05-10T05:24:53;47.53;;;27.50;;
33074;SDS011;19433;51.292;6.868;2023-05-10T05:27:19;73.50;;;29.70;;
33074;SDS011;19433;51.292;6.868;2023-05-10T05:29:47;53.17;;;27.93;;
33074;SDS011;19433;51.292;6.868;2023-05-10T05:32:12;64.40;;;29.03;;
33074;SDS011;19433;51.292;6.868;2023-05-10T05:34:37;58.57;;;30.10;;
33074;SDS011;19433;51.292;6.868;2023-05-10T05:37:03;56.80;;;29.80;;
33074;SDS011;19433;51.292;6.868;2023-05-10T05:39:28;57.57;;;27.00;;
33074;SDS011;19433;51.292;6.868;2023-05-10T05:41:53;50.10;;;28.00;;
33074;SDS011;19433;51.292;6.868;2023-05-10T05:44:19;52.57;;;27.13;;
33074;SDS011;19433;51.292;6.868;2023-05-10T05:46:44;48.10;;;28.20;;
33074;SDS011;19433;51.292;6.868;2023-05-10T05:49:10;42.23;;;25.60;;
33074;SDS011;19433;51.292;6.868;2023-05-10T05:51:35;52.83;;;27.80;;
33074;SDS011;19433;51.292;6.868;2023-05-10T05:54:00;42.47;;;24.43;;
33074;SDS011;19433;51.292;6.868;2023-05-10T05:56:26;41.37;;;26.50;;
33074;SDS011;19433;51.292;6.868;2023-05-10T05:58:51;43.70;;;26.80;;
33074;SDS011;19433;51.292;6.868;2023-05-10T06:01:16;43.40;;;25.23;;
33074;SDS011;19433;51.292;6.868;2023-05-10T06:03:42;42.47;;;25.40;;
33074;SDS011;19433;51.292;6.868;2023-05-10T06:06:07;35.87;;;24.53;;
33074;SDS011;19433;51.292;6.868;2023-05-10T06:08:33;36.07;;;22.30;;
33074;SDS011;19433;51.292;6.868;2023-05-10T06:10:58;32.90;;;21.93;;
33074;SDS011;19433;51.292;6.868;2023-05-10T06:13:24;34.90;;;22.70;;
33074;SDS011;19433;51.292;6.868;2023-05-10T06:15:50;33.63;;;21.53;;
33074;SDS011;19433;51.292;6.868;2023-05-10T06:18:15;33.13;;;21.03;;
33074;SDS011;19433;51.292;6.868;2023-05-10T06:20:41;29.67;;;21.13;;
33074;SDS011;19433;51.292;6.868;2023-05-10T06:23:07;39.00;;;23.00;;
33074;SDS011;19433;51.292;6.868;2023-05-10T06:25:33;38.50;;;23.73;;
33074;SDS011;19433;51.292;6.868;2023-05-10T06:27:58;34.57;;;23.90;;
33074;SDS011;19433;51.292;6.868;2023-05-10T06:30:24;37.23;;;24.03;;
33074;SDS011;19433;51.292;6.868;2023-05-10T06:32:53;36.60;;;23.57;;
33074;SDS011;19433;51.292;6.868;2023-05-10T06:35:18;38.20;;;25.13;;
33074;SDS011;19433;51.292;6.868;2023-05-10T06:37:43;35.83;;;25.20;;
33074;SDS011;19433;51.292;6.868;2023-05-10T06:40:09;44.10;;;22.90;;
33074;SDS011;19433;51.292;6.868;2023-05-10T06:42:34;37.37;;;25.70;;
33074;SDS011;19433;51.292;6.868;2023-05-10T06:45:00;35.30;;;23.50;;
33074;SDS011;19433;51.292;6.868;2023-05-10T06:47:25;34.53;;;24.80;;
33074;SDS011;19433;51.292;6.868;2023-05-10T06:49:50;34.30;;;25.20;;
33074;SDS011;19433;51.292;6.868;2023-05-10T06:52:16;37.10;;;26.67;;
33074;SDS011;19433;51.292;6.868;2023-05-10T06:54:41;35.50;;;26.47;;
33074;SDS011;19433;51.292;6.868;2023-05-10T06:57:06;34.63;;;27.23;;
33074;SDS011;19433;51.292;6.868;2023-05-10T06:59:31;36.50;;;25.60;;
33074;SDS011;19433;51.292;6.868;2023-05-10T07:01:57;41.03;;;27.20;;
33074;SDS011;19433;51.292;6.868;2023-05-10T07:04:22;46.90;;;27.33;;
33074;SDS011;19433;51.292;6.868;2023-05-10T07:06:48;43.07;;;27.07;;
33074;SDS011;19433;51.292;6.868;2023-05-10T07:09:14;49.40;;;29.40;;
33074;SDS011;19433;51.292;6.868;2023-05-10T07:11:40;49.40;;;28.97;;
33074;SDS011;19433;51.292;6.868;2023-05-10T07:14:06;44.30;;;27.80;;
33074;SDS011;19433;51.292;6.868;2023-05-10T07:16:31;40.30;;;24.97;;
33074;SDS011;19433;51.292;6.868;2023-05-10T07:18:56;44.40;;;25.60;;
33074;SDS011;19433;51.292;6.868;2023-05-10T07:21:22;41.03;;;25.83;;
33074;SDS011;19433;51.292;6.868;2023-05-10T07:23:49;35.33;;;24.03;;
33074;SDS011;19433;51.292;6.868;2023-05-10T07:26:15;38.43;;;24.30;;
33074;SDS011;19433;51.292;6.868;2023-05-10T07:28:40;35.17;;;25.50;;
33074;SDS011;19433;51.292;6.868;2023-05-10T07:31:06;44.40;;;24.13;;
33074;SDS011;19433;51.292;6.868;2023-05-10T07:33:31;42.67;;;24.80;;
33074;SDS011;19433;51.292;6.868;2023-05-10T07:35:57;41.37;;;24.77;;
33074;SDS011;19433;51.292;6.868;2023-05-10T07:38:22;42.60;;;23.73;;
33074;SDS011;19433;51.292;6.868;2023-05-10T07:40:48;41.30;;;24.07;;
33074;SDS011;19433;51.292;6.868;2023-05-10T07:43:13;36.80;;;23.57;;
33074;SDS011;19433;51.292;6.868;2023-05-10T07:45:39;43.10;;;24.90;;
33074;SDS011;19433;51.292;6.868;2023-05-10T07:48:04;33.10;;;22.77;;
33074;SDS011;19433;51.292;6.868;2023-05-10T07:50:29;30.50;;;22.10;;
33074;SDS011;19433;51.292;6.868;2023-05-10T07:52:55;30.07;;;22.30;;
33074;SDS011;19433;51.292;6.868;2023-05-10T07:55:20;28.13;;;21.07;;
33074;SDS011;19433;51.292;6.868;2023-05-10T07:57:48;26.60;;;20.00;;
33074;SDS011;19433;51.292;6.868;2023-05-10T08:00:16;22.23;;;19.13;;
33074;SDS011;19433;51.292;6.868;2023-05-10T08:02:43;23.90;;;19.23;;
33074;SDS011;19433;51.292;6.868;2023-05-10T08:05:11;23.20;;;17.33;;
33074;SDS011;19433;51.292;6.868;2023-05-10T08:07:37;20.53;;;16.40;;
33074;SDS011;19433;51.292;6.868;2023-05-10T08:10:02;21.40;;;17.60;;
33074;SDS011;19433;51.292;6.868;2023-05-10T08:12:28;22.07;;;17.93;;
33074;SDS011;19433;51.292;6.868;2023-05-10T08:14:53;25.97;;;20.40;;
33074;SDS011;19433;51.292;6.868;2023-05-10T08:17:19;25.90;;;20.60;;
33074;SDS011;19433;51.292;6.868;2023-05-10T08:19:44;30.60;;;21.77;;
33074;SDS011;19433;51.292;6.868;2023-05-10T08:22:09;30.87;;;22.30;;
33074;SDS011;19433;51.292;6.868;2023-05-10T08:24:35;36.13;;;25.23;;
33074;SDS011;19433;51.292;6.868;2023-05-10T08:27:07;37.03;;;25.33;;
33074;SDS011;19433;51.292;6.868;2023-05-10T08:29:33;30.63;;;24.30;;
33074;SDS011;19433;51.292;6.868;2023-05-10T08:31:58;40.60;;;27.27;;
33074;SDS011;19433;51.292;6.868;2023-05-10T08:34:23;43.13;;;29.20;;
33074;SDS011;19433;51.292;6.868;2023-05-10T08:36:49;37.87;;;27.47;;
33074;SDS011;19433;51.292;6.868;2023-05-10T08:39:14;34.33;;;24.57;;
33074;SDS011;19433;51.292;6.868;2023-05-10T08:41:39;35.90;;;28.03;;
33074;SDS011;19433;51.292;6.868;2023-05-10T08:44:08;35.90;;;27.17;;
33074;SDS011;19433;51.292;6.868;2023-05-10T08:46:34;29.50;;;25.07;;
33074;SDS011;19433;51.292;6.868;2023-05-10T08:49:04;32.20;;;25.23;;
33074;SDS011;19433;51.292;6.868;2023-05-10T08:51:33;32.67;;;27.73;;
33074;SDS011;19433;51.292;6.868;2023-05-10T08:54:01;36.33;;;28.97;;
33074;SDS011;19433;51.292;6.868;2023-05-10T08:56:27;34.63;;;28.70;;
33074;SDS011;19433;51.292;6.868;2023-05-10T08:58:53;33.83;;;27.67;;
33074;SDS011;19433;51.292;6.868;2023-05-10T09:01:18;36.17;;;28.07;;
33074;SDS011;19433;51.292;6.868;2023-05-10T09:03:46;30.73;;;24.87;;
33074;SDS011;19433;51.292;6.868;2023-05-10T09:06:12;31.10;;;25.00;;
33074;SDS011;19433;51.292;6.868;2023-05-10T09:08:38;29.03;;;24.80;;
33074;SDS011;19433;51.292;6.868;2023-05-10T09:11:04;28.57;;;24.60;;
33074;SDS011;19433;51.292;6.868;2023-05-10T09:13:30;29.50;;;25.40;;
33074;SDS011;19433;51.292;6.868;2023-05-10T09:15:56;31.37;;;24.33;;
33074;SDS011;19433;51.292;6.868;2023-05-10T09:18:22;28.50;;;25.30;;
33074;SDS011;19433;51.292;6.868;2023-05-10T09:20:48;26.80;;;23.93;;
33074;SDS011;19433;51.292;6.868;2023-05-10T09:23:13;27.87;;;23.73;;
33074;SDS011;19433;51.292;6.868;2023-05-10T09:25:39;33.93;;;25.50;;
33074;SDS011;19433;51.292;6.868;2023-05-10T09:28:07;28.70;;;23.40;;
33074;SDS011;19433;51.292;6.868;2023-05-10T09:30:33;33.07;;;22.97;;
33074;SDS011;19433;51.292;6.868;2023-05-10T09:32:59;26.57;;;22.90;;
33074;SDS011;19433;51.292;6.868;2023-05-10T09:35:29;29.97;;;21.57;;
33074;SDS011;19433;51.292;6.868;2023-05-10T09:37:58;24.03;;;19.83;;
33074;SDS011;19433;51.292;6.868;2023-05-10T09:40:26;20.53;;;18.00;;
33074;SDS011;19433;51.292;6.868;2023-05-10T09:42:57;20.07;;;18.10;;
33074;SDS011;19433;51.292;6.868;2023-05-10T09:45:24;20.57;;;18.67;;
33074;SDS011;19433;51.292;6.868;2023-05-10T09:47:50;18.90;;;16.90;;
33074;SDS011;19433;51.292;6.868;2023-05-10T09:50:16;18.50;;;16.13;;
33074;SDS011;19433;51.292;6.868;2023-05-10T09:55:14;17.40;;;15.60;;
33074;SDS011;19433;51.292;6.868;2023-05-10T09:57:40;16.27;;;14.53;;
33074;SDS011;19433;51.292;6.868;2023-05-10T10:00:06;14.90;;;13.40;;
33074;SDS011;19433;51.292;6.868;2023-05-10T10:02:32;14.20;;;12.80;;
33074;SDS011;19433;51.292;6.868;2023-05-10T10:04:58;15.13;;;13.63;;
33074;SDS011;19433;51.292;6.868;2023-05-10T10:07:26;12.53;;;11.30;;
33074;SDS011;19433;51.292;6.868;2023-05-10T10:09:52;14.97;;;13.53;;
33074;SDS011;19433;51.292;6.868;2023-05-10T10:12:18;16.60;;;13.13;;
33074;SDS011;19433;51.292;6.868;2023-05-10T10:14:45;13.10;;;11.70;;
33074;SDS011;19433;51.292;6.868;2023-05-10T10:17:12;13.40;;;12.30;;
33074;SDS011;19433;51.292;6.868;2023-05-10T10:19:37;12.50;;;11.30;;
33074;SDS011;19433;51.292;6.868;2023-05-10T10:22:03;13.63;;;12.10;;
33074;SDS011;19433;51.292;6.868;2023-05-10T10:24:29;14.50;;;13.10;;
33074;SDS011;19433;51.292;6.868;2023-05-10T10:26:55;16.87;;;15.20;;
33074;SDS011;19433;51.292;6.868;2023-05-10T10:29:52;17.63;;;15.87;;
33074;SDS011;19433;51.292;6.868;2023-05-10T10:32:27;17.33;;;15.63;;
33074;SDS011;19433;51.292;6.868;2023-05-10T10:35:02;17.50;;;14.40;;
33074;SDS011;19433;51.292;6.868;2023-05-10T10:37:44;18.87;;;15.83;;
33074;SDS011;19433;51.292;6.868;2023-05-10T10:40:26;17.60;;;15.77;;
33074;SDS011;19433;51.292;6.868;2023-05-10T10:42:52;16.73;;;15.10;;
33074;SDS011;19433;51.292;6.868;2023-05-10T10:45:19;18.90;;;16.90;;
33074;SDS011;19433;51.292;6.868;2023-05-10T10:47:45;18.47;;;16.50;;
33074;SDS011;19433;51.292;6.868;2023-05-10T10:50:10;18.37;;;16.43;;
33074;SDS011;19433;51.292;6.868;2023-05-10T10:52:41;18.93;;;16.33;;
33074;SDS011;19433;51.292;6.868;2023-05-10T10:55:14;17.70;;;16.00;;
33074;SDS011;19433;51.292;6.868;2023-05-10T11:00:21;16.57;;;14.80;;
33074;SDS011;19433;51.292;6.868;2023-05-10T11:03:05;16.10;;;14.60;;
33074;SDS011;19433;51.292;6.868;2023-05-10T11:06:06;14.77;;;13.40;;
33074;SDS011;19433;51.292;6.868;2023-05-10T11:08:27;15.00;;;13.50;;
33074;SDS011;19433;51.292;6.868;2023-05-10T11:13:45;14.70;;;12.90;;
33074;SDS011;19433;51.292;6.868;2023-05-10T11:16:23;13.70;;;12.37;;
33074;SDS011;19433;51.292;6.868;2023-05-10T11:19:07;14.87;;;13.37;;
33074;SDS011;19433;51.292;6.868;2023-05-10T11:21:34;13.10;;;11.97;;
33074;SDS011;19433;51.292;6.868;2023-05-10T11:24:13;12.93;;;11.73;;
33074;SDS011;19433;51.292;6.868;2023-05-10T11:26:40;13.17;;;11.87;;
33074;SDS011;19433;51.292;6.868;2023-05-10T11:29:05;13.60;;;12.33;;
33074;SDS011;19433;51.292;6.868;2023-05-10T11:31:31;13.30;;;12.00;;
33074;SDS011;19433;51.292;6.868;2023-05-10T11:33:57;13.37;;;12.23;;
33074;SDS011;19433;51.292;6.868;2023-05-10T11:36:25;14.57;;;13.10;;
33074;SDS011;19433;51.292;6.868;2023-05-10T11:38:52;16.07;;;13.77;;
33074;SDS011;19433;51.292;6.868;2023-05-10T11:41:19;16.90;;;15.30;;
33074;SDS011;19433;51.292;6.868;2023-05-10T11:43:52;17.70;;;16.20;;
33074;SDS011;19433;51.292;6.868;2023-05-10T11:46:19;17.07;;;15.37;;
33074;SDS011;19433;51.292;6.868;2023-05-10T11:48:49;18.07;;;16.33;;
33074;SDS011;19433;51.292;6.868;2023-05-10T11:51:19;17.60;;;15.90;;
33074;SDS011;19433;51.292;6.868;2023-05-10T11:53:49;18.60;;;16.80;;
33074;SDS011;19433;51.292;6.868;2023-05-10T11:56:16;19.67;;;17.83;;
33074;SDS011;19433;51.292;6.868;2023-05-10T11:58:41;19.47;;;17.50;;
33074;SDS011;19433;51.292;6.868;2023-05-10T12:01:07;16.13;;;14.60;;
33074;SDS011;19433;51.292;6.868;2023-05-10T12:03:34;15.47;;;14.07;;
33074;SDS011;19433;51.292;6.868;2023-05-10T12:06:00;15.73;;;14.33;;
33074;SDS011;19433;51.292;6.868;2023-05-10T12:08:27;13.70;;;12.60;;
33074;SDS011;19433;51.292;6.868;2023-05-10T12:11:04;16.90;;;15.40;;
33074;SDS011;19433;51.292;6.868;2023-05-10T12:13:38;15.63;;;14.10;;
33074;SDS011;19433;51.292;6.868;2023-05-10T12:16:15;15.50;;;13.93;;
33074;SDS011;19433;51.292;6.868;2023-05-10T12:18:41;15.50;;;14.10;;
33074;SDS011;19433;51.292;6.868;2023-05-10T12:21:10;16.10;;;14.80;;
33074;SDS011;19433;51.292;6.868;2023-05-10T12:23:36;14.73;;;13.50;;
33074;SDS011;19433;51.292;6.868;2023-05-10T12:26:02;15.40;;;14.10;;
33074;SDS011;19433;51.292;6.868;2023-05-10T12:28:29;14.37;;;13.17;;
33074;SDS011;19433;51.292;6.868;2023-05-10T12:30:55;13.43;;;12.17;;
33074;SDS011;19433;51.292;6.868;2023-05-10T12:33:22;12.97;;;11.90;;
33074;SDS011;19433;51.292;6.868;2023-05-10T12:35:49;13.93;;;12.80;;
33074;SDS011;19433;51.292;6.868;2023-05-10T12:38:34;13.13;;;12.07;;
33074;SDS011;19433;51.292;6.868;2023-05-10T12:41:06;14.80;;;13.43;;
33074;SDS011;19433;51.292;6.868;2023-05-10T12:43:33;12.40;;;11.30;;
33074;SDS011;19433;51.292;6.868;2023-05-10T12:48:39;12.97;;;11.77;;
33074;SDS011;19433;51.292;6.868;2023-05-10T12:51:06;12.60;;;11.50;;
33074;SDS011;19433;51.292;6.868;2023-05-10T12:53:37;13.33;;;12.20;;
33074;SDS011;19433;51.292;6.868;2023-05-10T12:56:03;14.90;;;13.33;;
33074;SDS011;19433;51.292;6.868;2023-05-10T12:58:28;13.20;;;12.10;;
33074;SDS011;19433;51.292;6.868;2023-05-10T13:00:54;12.50;;;11.60;;
33074;SDS011;19433;51.292;6.868;2023-05-10T13:03:21;13.03;;;11.93;;
33074;SDS011;19433;51.292;6.868;2023-05-10T13:05:46;12.77;;;11.50;;
33074;SDS011;19433;51.292;6.868;2023-05-10T13:08:12;12.37;;;11.50;;
33074;SDS011;19433;51.292;6.868;2023-05-10T13:10:37;13.57;;;12.43;;
33074;SDS011;19433;51.292;6.868;2023-05-10T13:13:02;11.70;;;10.80;;
33074;SDS011;19433;51.292;6.868;2023-05-10T13:15:28;13.77;;;12.47;;
33074;SDS011;19433;51.292;6.868;2023-05-10T13:17:53;14.17;;;12.97;;
33074;SDS011;19433;51.292;6.868;2023-05-10T13:20:19;13.17;;;11.97;;
33074;SDS011;19433;51.292;6.868;2023-05-10T13:22:44;12.60;;;11.60;;
33074;SDS011;19433;51.292;6.868;2023-05-10T13:25:10;13.80;;;12.50;;
33074;SDS011;19433;51.292;6.868;2023-05-10T13:27:37;15.47;;;14.17;;
33074;SDS011;19433;51.292;6.868;2023-05-10T13:30:09;13.90;;;12.80;;
33074;SDS011;19433;51.292;6.868;2023-05-10T13:32:36;14.57;;;13.50;;
33074;SDS011;19433;51.292;6.868;2023-05-10T13:35:01;15.70;;;14.40;;
33074;SDS011;19433;51.292;6.868;2023-05-10T13:37:28;15.23;;;14.00;;
33074;SDS011;19433;51.292;6.868;2023-05-10T13:39:54;14.63;;;13.50;;
33074;SDS011;19433;51.292;6.868;2023-05-10T13:42:19;15.03;;;13.83;;
33074;SDS011;19433;51.292;6.868;2023-05-10T13:44:45;16.50;;;15.20;;
33074;SDS011;19433;51.292;6.868;2023-05-10T13:47:10;14.80;;;13.60;;
33074;SDS011;19433;51.292;6.868;2023-05-10T13:49:36;14.80;;;13.60;;
33074;SDS011;19433;51.292;6.868;2023-05-10T13:52:01;15.80;;;14.50;;
33074;SDS011;19433;51.292;6.868;2023-05-10T13:54:32;15.13;;;13.93;;
33074;SDS011;19433;51.292;6.868;2023-05-10T13:57:03;15.70;;;14.37;;
33074;SDS011;19433;51.292;6.868;2023-05-10T13:59:29;14.90;;;13.80;;
33074;SDS011;19433;51.292;6.868;2023-05-10T14:01:56;16.37;;;15.17;;
33074;SDS011;19433;51.292;6.868;2023-05-10T14:04:23;15.60;;;14.30;;
33074;SDS011;19433;51.292;6.868;2023-05-10T14:06:48;15.37;;;14.10;;
33074;SDS011;19433;51.292;6.868;2023-05-10T14:09:14;16.03;;;14.73;;
33074;SDS011;19433;51.292;6.868;2023-05-10T14:11:39;15.20;;;13.90;;
33074;SDS011;19433;51.292;6.868;2023-05-10T14:14:08;15.30;;;14.10;;
33074;SDS011;19433;51.292;6.868;2023-05-10T14:16:33;17.90;;;16.30;;
33074;SDS011;19433;51.292;6.868;2023-05-10T14:18:59;18.10;;;16.60;;
33074;SDS011;19433;51.292;6.868;2023-05-10T14:21:24;17.20;;;15.50;;
33074;SDS011;19433;51.292;6.868;2023-05-10T14:23:50;16.07;;;14.77;;
33074;SDS011;19433;51.292;6.868;2023-05-10T14:26:15;16.13;;;14.67;;
33074;SDS011;19433;51.292;6.868;2023-05-10T14:28:41;16.03;;;14.73;;
33074;SDS011;19433;51.292;6.868;2023-05-10T14:31:06;14.60;;;13.40;;
33074;SDS011;19433;51.292;6.868;2023-05-10T14:33:31;17.17;;;15.83;;
33074;SDS011;19433;51.292;6.868;2023-05-10T14:35:57;16.57;;;15.17;;
33074;SDS011;19433;51.292;6.868;2023-05-10T14:38:22;16.77;;;15.20;;
33074;SDS011;19433;51.292;6.868;2023-05-10T14:40:48;16.60;;;15.30;;
33074;SDS011;19433;51.292;6.868;2023-05-10T14:43:14;17.47;;;15.97;;
33074;SDS011;19433;51.292;6.868;2023-05-10T14:45:39;14.83;;;13.63;;